createdAt,value
2023-05-25T00:01:01.139Z,0.00
2023-05-25T00:01:50.018Z,0.00
2023-05-25T00:02:49.128Z,0.00
2023-05-25T00:03:49.033Z,0.00
2023-05-25T00:04:48.907Z,0.00
2023-05-25T00:05:48.889Z,0.00
2023-05-25T00:06:48.884Z,0.00
2023-05-25T00:07:48.856Z,0.00
2023-05-25T00:08:48.857Z,0.00
2023-05-25T00:09:48.861Z,0.00
2023-05-25T00:10:48.853Z,0.00
2023-05-25T00:11:48.816Z,0.00
2023-05-25T00:12:48.865Z,0.00
2023-05-25T00:13:48.795Z,0.00
2023-05-25T00:14:48.804Z,0.00
2023-05-25T00:15:48.771Z,0.00
2023-05-25T00:16:48.816Z,0.00
2023-05-25T00:17:48.842Z,0.00
2023-05-25T00:18:48.799Z,0.00
2023-05-25T00:19:48.760Z,0.00
2023-05-25T00:20:48.730Z,0.00
2023-05-25T00:21:48.924Z,0.00
2023-05-25T00:22:48.697Z,0.00
2023-05-25T00:23:48.710Z,0.00
2023-05-25T00:24:48.683Z,0.00
2023-05-25T00:25:48.676Z,0.00
2023-05-25T00:26:48.653Z,0.00
2023-05-25T00:27:48.649Z,0.00
2023-05-25T00:28:48.656Z,0.00
2023-05-25T00:29:48.632Z,0.00
2023-05-25T00:30:48.668Z,0.00
2023-05-25T00:31:48.599Z,0.00
2023-05-25T00:32:48.625Z,0.00
2023-05-25T00:33:48.586Z,0.00
2023-05-25T00:34:48.582Z,0.00
2023-05-25T00:35:48.563Z,0.00
2023-05-25T00:36:48.546Z,0.00
2023-05-25T00:37:48.550Z,0.00
2023-05-25T00:38:48.524Z,0.00
2023-05-25T00:39:48.508Z,0.00
2023-05-25T00:40:48.495Z,0.00
2023-05-25T00:41:48.513Z,0.00
2023-05-25T00:42:48.509Z,0.00
2023-05-25T00:43:48.475Z,0.00
2023-05-25T00:44:48.456Z,0.00
2023-05-25T00:45:48.493Z,0.00
2023-05-25T00:46:48.527Z,0.00
2023-05-25T00:47:48.483Z,0.00
2023-05-25T00:48:48.406Z,0.00
2023-05-25T00:49:48.406Z,0.00
2023-05-25T00:50:48.409Z,0.00
2023-05-25T00:51:48.389Z,0.00
2023-05-25T00:52:48.392Z,0.00
2023-05-25T00:53:48.364Z,0.00
2023-05-25T00:54:48.378Z,0.00
2023-05-25T00:55:48.357Z,0.00
2023-05-25T00:56:48.332Z,0.00
2023-05-25T00:57:48.315Z,0.00
2023-05-25T00:58:48.302Z,0.00
2023-05-25T00:59:48.331Z,0.00
2023-05-25T01:00:48.294Z,0.00
2023-05-25T01:01:48.347Z,0.00
2023-05-25T01:02:48.417Z,0.00
2023-05-25T01:03:48.292Z,0.00
2023-05-25T01:04:48.241Z,0.00
2023-05-25T01:05:48.251Z,0.00
2023-05-25T01:06:48.244Z,0.00
2023-05-25T01:07:48.207Z,0.00
2023-05-25T01:08:48.196Z,0.00
2023-05-25T01:09:48.180Z,0.00
2023-05-25T01:10:48.180Z,0.00
2023-05-25T01:11:48.161Z,0.00
2023-05-25T01:12:48.151Z,0.00
2023-05-25T01:13:48.139Z,0.00
2023-05-25T01:14:48.144Z,0.00
2023-05-25T01:15:48.131Z,0.00
2023-05-25T01:16:48.148Z,0.00
2023-05-25T01:17:48.131Z,0.00
2023-05-25T01:18:48.099Z,0.00
2023-05-25T01:20:01.669Z,0.00
2023-05-25T01:20:49.076Z,0.00
2023-05-25T01:21:48.057Z,0.00
2023-05-25T01:22:48.040Z,0.00
2023-05-25T01:23:48.029Z,0.00
2023-05-25T01:24:48.019Z,0.00
2023-05-25T01:25:48.008Z,0.00
2023-05-25T01:26:47.992Z,0.00
2023-05-25T01:27:48.041Z,0.00
2023-05-25T01:28:48.035Z,0.00
2023-05-25T01:29:47.998Z,0.00
2023-05-25T01:30:47.947Z,0.00
2023-05-25T01:31:48.008Z,0.00
2023-05-25T01:32:47.933Z,0.00
2023-05-25T01:33:47.929Z,0.00
2023-05-25T01:34:47.906Z,0.00
2023-05-25T01:35:47.910Z,0.00
2023-05-25T01:36:47.878Z,0.00
2023-05-25T01:37:47.920Z,0.00
2023-05-25T01:38:47.876Z,0.00
2023-05-25T01:39:47.857Z,0.00
2023-05-25T01:40:47.840Z,0.00
2023-05-25T01:41:47.845Z,0.00
2023-05-25T01:42:47.833Z,0.00
2023-05-25T01:43:47.820Z,0.00
2023-05-25T01:44:47.792Z,0.00
2023-05-25T01:45:47.828Z,0.00
2023-05-25T01:46:47.777Z,0.00
2023-05-25T01:47:47.807Z,0.00
2023-05-25T01:48:47.750Z,0.00
2023-05-25T01:49:47.757Z,0.00
2023-05-25T01:50:47.726Z,0.00
2023-05-25T01:51:47.762Z,0.00
2023-05-25T01:52:47.716Z,0.00
2023-05-25T01:53:47.696Z,0.00
2023-05-25T01:54:47.678Z,0.00
2023-05-25T01:55:47.675Z,0.00
2023-05-25T01:56:47.672Z,0.00
2023-05-25T01:57:47.650Z,0.00
2023-05-25T01:58:47.652Z,0.00
2023-05-25T01:59:47.636Z,0.00
2023-05-25T02:00:47.612Z,0.00
2023-05-25T02:01:48.445Z,0.00
2023-05-25T02:02:47.623Z,0.00
2023-05-25T02:03:47.588Z,0.00
2023-05-25T02:04:47.711Z,0.00
2023-05-25T02:05:47.604Z,0.00
2023-05-25T02:06:47.558Z,0.00
2023-05-25T02:07:47.567Z,0.00
2023-05-25T02:08:47.526Z,0.00
2023-05-25T02:09:47.521Z,0.00
2023-05-25T02:10:47.517Z,0.00
2023-05-25T02:11:47.507Z,0.00
2023-05-25T02:12:47.503Z,0.00
2023-05-25T02:13:47.487Z,0.00
2023-05-25T02:14:47.476Z,0.00
2023-05-25T02:15:47.624Z,0.00
2023-05-25T02:16:47.445Z,0.00
2023-05-25T02:17:47.468Z,0.00
2023-05-25T02:18:47.420Z,0.00
2023-05-25T02:19:47.453Z,0.00
2023-05-25T02:20:47.425Z,0.00
2023-05-25T02:21:47.389Z,0.00
2023-05-25T02:22:47.380Z,0.00
2023-05-25T02:23:47.368Z,0.00
2023-05-25T02:24:47.360Z,0.00
2023-05-25T02:25:47.350Z,0.00
2023-05-25T02:26:47.351Z,0.00
2023-05-25T02:27:47.327Z,0.00
2023-05-25T02:28:47.310Z,0.00
2023-05-25T02:29:47.316Z,0.00
2023-05-25T02:30:47.385Z,0.00
2023-05-25T02:31:47.352Z,0.00
2023-05-25T02:32:47.327Z,0.00
2023-05-25T02:33:47.279Z,0.00
2023-05-25T02:34:47.269Z,0.00
2023-05-25T02:35:47.243Z,0.00
2023-05-25T02:36:47.248Z,0.00
2023-05-25T02:37:48.448Z,0.00
2023-05-25T02:38:47.233Z,0.00
2023-05-25T02:39:47.201Z,0.00
2023-05-25T02:40:47.180Z,0.00
2023-05-25T02:41:47.182Z,0.00
2023-05-25T02:42:47.161Z,0.00
2023-05-25T02:43:47.168Z,0.00
2023-05-25T02:44:47.142Z,0.00
2023-05-25T02:45:47.136Z,0.00
2023-05-25T02:46:47.130Z,0.00
2023-05-25T02:47:47.190Z,0.00
2023-05-25T02:48:47.113Z,0.00
2023-05-25T02:49:47.199Z,0.00
2023-05-25T02:50:47.096Z,0.00
2023-05-25T02:51:47.074Z,0.00
2023-05-25T02:52:47.060Z,0.00
2023-05-25T02:53:47.061Z,0.00
2023-05-25T02:54:47.024Z,0.00
2023-05-25T02:55:47.038Z,0.00
2023-05-25T02:56:47.015Z,0.00
2023-05-25T02:57:47.009Z,0.00
2023-05-25T02:58:46.996Z,0.00
2023-05-25T02:59:46.987Z,0.00
2023-05-25T03:00:47.071Z,0.00
2023-05-25T03:01:46.956Z,0.00
2023-05-25T03:02:47.016Z,0.00
2023-05-25T03:03:46.983Z,0.00
2023-05-25T03:04:46.919Z,0.00
2023-05-25T03:05:46.918Z,0.00
2023-05-25T03:06:46.910Z,0.00
2023-05-25T03:07:46.950Z,0.00
2023-05-25T03:08:46.878Z,0.00
2023-05-25T03:09:46.874Z,0.00
2023-05-25T03:10:46.861Z,0.00
2023-05-25T03:11:46.864Z,0.00
2023-05-25T03:12:46.830Z,0.00
2023-05-25T03:13:46.834Z,0.00
2023-05-25T03:14:46.801Z,0.00
2023-05-25T03:15:46.808Z,0.00
2023-05-25T03:16:46.877Z,0.00
2023-05-25T03:17:46.844Z,0.00
2023-05-25T03:18:46.776Z,0.00
2023-05-25T03:19:46.769Z,0.00
2023-05-25T03:20:46.770Z,0.00
2023-05-25T03:21:46.756Z,0.00
2023-05-25T03:22:46.734Z,5.62
2023-05-25T03:23:46.716Z,5.62
2023-05-25T03:24:46.701Z,5.62
2023-05-25T03:25:46.841Z,5.62
2023-05-25T03:26:46.759Z,5.62
2023-05-25T03:27:46.662Z,5.62
2023-05-25T03:28:46.672Z,5.62
2023-05-25T03:29:46.746Z,5.62
2023-05-25T03:30:46.664Z,11.25
2023-05-25T03:31:46.774Z,11.25
2023-05-25T03:32:46.651Z,11.25
2023-05-25T03:33:46.687Z,11.25
2023-05-25T03:34:46.616Z,11.25
2023-05-25T03:35:46.760Z,11.25
2023-05-25T03:36:46.573Z,16.88
2023-05-25T03:37:46.592Z,16.88
2023-05-25T03:38:46.552Z,16.88
2023-05-25T03:39:46.584Z,16.88
2023-05-25T03:40:46.539Z,16.88
2023-05-25T03:41:46.538Z,22.50
2023-05-25T03:42:46.508Z,22.50
2023-05-25T03:43:46.510Z,22.50
2023-05-25T03:44:46.512Z,22.50
2023-05-25T03:45:46.585Z,28.12
2023-05-25T03:46:46.564Z,28.12
2023-05-25T03:47:46.490Z,28.12
2023-05-25T03:48:46.488Z,28.12
2023-05-25T03:49:46.438Z,33.75
2023-05-25T03:50:46.424Z,33.75
2023-05-25T03:51:46.430Z,33.75
2023-05-25T03:52:46.411Z,39.38
2023-05-25T03:53:46.426Z,39.38
2023-05-25T03:54:46.375Z,39.38
2023-05-25T03:55:46.523Z,45.00
2023-05-25T03:56:46.407Z,45.00
2023-05-25T03:57:46.418Z,45.00
2023-05-25T03:58:46.372Z,45.00
2023-05-25T03:59:46.328Z,50.62
2023-05-25T04:00:46.310Z,50.62
2023-05-25T04:01:46.308Z,56.25
2023-05-25T04:02:46.383Z,56.25
2023-05-25T04:03:46.448Z,56.25
2023-05-25T04:04:46.359Z,56.25
2023-05-25T04:05:46.492Z,61.88
2023-05-25T04:06:46.242Z,61.88
2023-05-25T04:07:46.267Z,67.50
2023-05-25T04:08:46.226Z,67.50
2023-05-25T04:09:46.235Z,73.12
2023-05-25T04:10:46.231Z,78.75
2023-05-25T04:11:46.208Z,78.75
2023-05-25T04:12:46.201Z,78.75
2023-05-25T04:13:46.182Z,78.75
2023-05-25T04:14:46.168Z,78.75
2023-05-25T04:15:46.397Z,78.75
2023-05-25T04:16:46.350Z,84.38
2023-05-25T04:17:46.160Z,84.38
2023-05-25T04:18:46.112Z,84.38
2023-05-25T04:19:46.110Z,90.00
2023-05-25T04:20:46.096Z,90.00
2023-05-25T04:21:46.110Z,90.00
2023-05-25T04:22:46.098Z,95.62
2023-05-25T04:23:46.091Z,95.62
2023-05-25T04:24:46.073Z,101.25
2023-05-25T04:25:46.266Z,101.25
2023-05-25T04:26:46.052Z,101.25
2023-05-25T04:27:46.023Z,101.25
2023-05-25T04:28:45.999Z,106.88
2023-05-25T04:29:46.022Z,106.88
2023-05-25T04:30:45.992Z,106.88
2023-05-25T04:31:46.105Z,112.50
2023-05-25T04:32:46.019Z,112.50
2023-05-25T04:33:46.002Z,118.12
2023-05-25T04:34:45.971Z,118.12
2023-05-25T04:35:46.216Z,118.12
2023-05-25T04:36:45.917Z,123.75
2023-05-25T04:37:45.909Z,135.00
2023-05-25T04:38:45.910Z,129.38
2023-05-25T04:39:45.986Z,129.38
2023-05-25T04:40:45.906Z,129.38
2023-05-25T04:41:45.936Z,129.38
2023-05-25T04:42:45.867Z,129.38
2023-05-25T04:43:56.831Z,135.00
2023-05-25T04:44:46.865Z,135.00
2023-05-25T04:45:46.318Z,135.00
2023-05-25T04:46:45.818Z,140.62
2023-05-25T04:47:45.916Z,140.62
2023-05-25T04:48:45.780Z,140.62
2023-05-25T04:49:45.793Z,140.62
2023-05-25T04:50:45.768Z,140.62
2023-05-25T04:51:45.755Z,146.25
2023-05-25T04:52:45.785Z,146.25
2023-05-25T04:53:46.040Z,146.25
2023-05-25T04:54:45.719Z,146.25
2023-05-25T04:55:45.936Z,151.88
2023-05-25T04:56:45.707Z,151.88
2023-05-25T04:57:45.695Z,157.50
2023-05-25T04:58:45.691Z,157.50
2023-05-25T04:59:45.676Z,157.50
2023-05-25T05:00:45.958Z,163.12
2023-05-25T05:01:45.708Z,168.75
2023-05-25T05:02:45.705Z,174.38
2023-05-25T05:03:45.668Z,168.75
2023-05-25T05:04:45.609Z,168.75
2023-05-25T05:05:45.821Z,174.38
2023-05-25T05:06:45.589Z,174.38
2023-05-25T05:07:45.599Z,185.62
2023-05-25T05:08:45.593Z,185.62
2023-05-25T05:09:45.562Z,185.62
2023-05-25T05:10:45.784Z,185.62
2023-05-25T05:11:45.545Z,191.25
2023-05-25T05:12:45.559Z,191.25
2023-05-25T05:13:45.544Z,185.62
2023-05-25T05:14:45.517Z,191.25
2023-05-25T05:15:45.704Z,191.25
2023-05-25T05:16:45.494Z,191.25
2023-05-25T05:17:45.539Z,196.88
2023-05-25T05:18:45.454Z,196.88
2023-05-25T05:19:45.469Z,202.50
2023-05-25T05:20:45.528Z,202.50
2023-05-25T05:21:45.449Z,208.12
2023-05-25T05:22:45.421Z,208.12
2023-05-25T05:23:45.419Z,208.12
2023-05-25T05:24:45.385Z,213.75
2023-05-25T05:25:45.623Z,213.75
2023-05-25T05:26:57.439Z,219.38
2023-05-25T05:27:46.365Z,225.00
2023-05-25T05:28:45.345Z,247.50
2023-05-25T05:29:45.343Z,270.00
2023-05-25T05:30:45.326Z,326.25
2023-05-25T05:31:45.387Z,410.62
2023-05-25T05:32:46.704Z,343.12
2023-05-25T05:33:45.355Z,264.38
2023-05-25T05:34:45.283Z,247.50
2023-05-25T05:35:45.440Z,247.50
2023-05-25T05:36:55.822Z,241.88
2023-05-25T05:37:46.263Z,253.12
2023-05-25T05:38:45.247Z,298.12
2023-05-25T05:39:45.236Z,360.00
2023-05-25T05:40:45.230Z,483.75
2023-05-25T05:41:45.204Z,590.62
2023-05-25T05:42:45.192Z,613.12
2023-05-25T05:43:45.183Z,601.88
2023-05-25T05:44:45.184Z,596.25
2023-05-25T05:45:45.513Z,624.38
2023-05-25T05:46:45.221Z,652.50
2023-05-25T05:47:45.197Z,658.12
2023-05-25T05:48:45.151Z,686.25
2023-05-25T05:49:45.148Z,725.62
2023-05-25T05:50:45.139Z,703.12
2023-05-25T05:51:45.102Z,675.00
2023-05-25T05:52:45.083Z,646.88
2023-05-25T05:53:45.096Z,630.00
2023-05-25T05:54:45.077Z,624.38
2023-05-25T05:55:46.038Z,635.62
2023-05-25T05:56:45.045Z,635.62
2023-05-25T05:57:45.032Z,635.62
2023-05-25T05:58:45.022Z,635.62
2023-05-25T05:59:45.028Z,630.00
2023-05-25T06:00:44.996Z,630.00
2023-05-25T06:01:45.026Z,635.62
2023-05-25T06:02:45.067Z,641.25
2023-05-25T06:03:44.977Z,652.50
2023-05-25T06:04:44.964Z,663.75
2023-05-25T06:05:45.255Z,663.75
2023-05-25T06:06:44.930Z,675.00
2023-05-25T06:07:44.921Z,686.25
2023-05-25T06:08:45.026Z,708.75
2023-05-25T06:09:44.901Z,736.88
2023-05-25T06:10:45.055Z,765.00
2023-05-25T06:11:44.878Z,776.25
2023-05-25T06:12:44.864Z,781.88
2023-05-25T06:13:46.480Z,804.38
2023-05-25T06:14:44.843Z,810.00
2023-05-25T06:15:45.099Z,810.00
2023-05-25T06:16:44.882Z,810.00
2023-05-25T06:17:44.842Z,826.88
2023-05-25T06:18:44.813Z,826.88
2023-05-25T06:19:44.789Z,838.12
2023-05-25T06:20:44.870Z,849.38
2023-05-25T06:21:44.760Z,860.62
2023-05-25T06:22:44.770Z,877.50
2023-05-25T06:23:44.741Z,905.62
2023-05-25T06:24:44.753Z,933.75
2023-05-25T06:25:44.966Z,945.00
2023-05-25T06:26:44.709Z,939.38
2023-05-25T06:27:44.708Z,939.38
2023-05-25T06:28:44.704Z,945.00
2023-05-25T06:29:44.665Z,967.50
2023-05-25T06:30:44.659Z,973.12
2023-05-25T06:31:44.770Z,1018.12
2023-05-25T06:32:44.714Z,1035.00
2023-05-25T06:33:44.626Z,1029.38
2023-05-25T06:34:44.641Z,1035.00
2023-05-25T06:35:44.801Z,1040.62
2023-05-25T06:36:44.602Z,1063.12
2023-05-25T06:37:44.609Z,1080.00
2023-05-25T06:38:44.583Z,1096.88
2023-05-25T06:39:44.559Z,1119.38
2023-05-25T06:40:44.590Z,1147.50
2023-05-25T06:41:44.573Z,1153.12
2023-05-25T06:42:44.525Z,1158.75
2023-05-25T06:43:44.552Z,1181.25
2023-05-25T06:44:44.518Z,1203.75
2023-05-25T06:45:44.752Z,1237.50
2023-05-25T06:46:44.534Z,1260.00
2023-05-25T06:47:44.510Z,1271.25
2023-05-25T06:48:44.475Z,1260.00
2023-05-25T06:49:44.470Z,1254.38
2023-05-25T06:50:44.463Z,1260.00
2023-05-25T06:51:44.428Z,1282.50
2023-05-25T06:52:44.438Z,1282.50
2023-05-25T06:53:44.532Z,1310.62
2023-05-25T06:54:44.408Z,1305.00
2023-05-25T06:55:44.577Z,1321.88
2023-05-25T06:56:44.386Z,1350.00
2023-05-25T06:57:44.383Z,1411.88
2023-05-25T06:58:44.352Z,1434.38
2023-05-25T06:59:44.368Z,1400.62
2023-05-25T07:00:46.028Z,1389.38
2023-05-25T07:01:44.347Z,1417.50
2023-05-25T07:02:44.368Z,1434.38
2023-05-25T07:03:44.485Z,1411.88
2023-05-25T07:04:44.388Z,1428.75
2023-05-25T07:05:44.505Z,1468.12
2023-05-25T07:06:44.267Z,1468.12
2023-05-25T07:07:44.261Z,1485.00
2023-05-25T07:08:44.282Z,1513.12
2023-05-25T07:09:44.240Z,1535.62
2023-05-25T07:10:44.229Z,1552.50
2023-05-25T07:11:44.207Z,1597.50
2023-05-25T07:12:44.226Z,1620.00
2023-05-25T07:13:44.216Z,1648.12
2023-05-25T07:14:44.182Z,1676.25
2023-05-25T07:15:44.390Z,1670.62
2023-05-25T07:16:44.255Z,1670.62
2023-05-25T07:17:44.208Z,1738.12
2023-05-25T07:18:44.147Z,1766.25
2023-05-25T07:19:44.153Z,1816.88
2023-05-25T07:20:44.422Z,1811.25
2023-05-25T07:21:44.116Z,1783.12
2023-05-25T07:22:44.149Z,1811.25
2023-05-25T07:23:44.102Z,1845.00
2023-05-25T07:24:44.080Z,1856.25
2023-05-25T07:25:44.226Z,1901.25
2023-05-25T07:26:44.051Z,1996.88
2023-05-25T07:27:44.043Z,2115.00
2023-05-25T07:28:44.031Z,2131.88
2023-05-25T07:29:44.016Z,2030.62
2023-05-25T07:30:44.006Z,2019.38
2023-05-25T07:31:44.319Z,1980.00
2023-05-25T07:32:44.423Z,1991.25
2023-05-25T07:33:44.019Z,2019.38
2023-05-25T07:34:44.035Z,2002.50
2023-05-25T07:35:44.196Z,1991.25
2023-05-25T07:36:43.957Z,2058.75
2023-05-25T07:37:43.938Z,2131.88
2023-05-25T07:38:43.923Z,2148.75
2023-05-25T07:39:43.904Z,2154.38
2023-05-25T07:40:43.901Z,2120.62
2023-05-25T07:41:43.912Z,2109.38
2023-05-25T07:42:43.879Z,2075.62
2023-05-25T07:43:43.874Z,2075.62
2023-05-25T07:44:43.860Z,2070.00
2023-05-25T07:45:44.084Z,2053.12
2023-05-25T07:46:43.879Z,2025.00
2023-05-25T07:47:43.866Z,2008.12
2023-05-25T07:48:43.813Z,2053.12
2023-05-25T07:49:43.824Z,2075.62
2023-05-25T07:50:43.820Z,2092.50
2023-05-25T07:51:43.786Z,2221.88
2023-05-25T07:52:43.835Z,2266.88
2023-05-25T07:53:43.778Z,2148.75
2023-05-25T07:54:43.756Z,2165.62
2023-05-25T07:55:44.081Z,2340.00
2023-05-25T07:56:43.740Z,2553.75
2023-05-25T07:57:43.723Z,2475.00
2023-05-25T07:58:43.717Z,2306.25
2023-05-25T07:59:43.747Z,2368.12
2023-05-25T08:00:43.710Z,2503.12
2023-05-25T08:01:43.743Z,2553.75
2023-05-25T08:02:43.817Z,2548.12
2023-05-25T08:03:49.752Z,2655.00
2023-05-25T08:04:44.781Z,2531.25
2023-05-25T08:05:43.920Z,2351.25
2023-05-25T08:06:43.624Z,2379.38
2023-05-25T08:07:43.618Z,2463.75
2023-05-25T08:08:43.640Z,3065.62
2023-05-25T08:09:43.622Z,2936.25
2023-05-25T08:10:43.582Z,2863.12
2023-05-25T08:11:43.580Z,2947.50
2023-05-25T08:12:49.513Z,3200.62
2023-05-25T08:13:44.700Z,3155.62
2023-05-25T08:14:43.598Z,3138.75
2023-05-25T08:15:43.739Z,3515.62
2023-05-25T08:16:43.552Z,3510.00
2023-05-25T08:17:43.549Z,3256.88
2023-05-25T08:18:43.502Z,2953.12
2023-05-25T08:19:43.492Z,2829.38
2023-05-25T08:20:43.623Z,2806.88
2023-05-25T08:21:43.458Z,2913.75
2023-05-25T08:22:43.461Z,2975.62
2023-05-25T08:23:43.450Z,3015.00
2023-05-25T08:24:43.449Z,2947.50
2023-05-25T08:25:43.779Z,2823.75
2023-05-25T08:26:54.422Z,2868.75
2023-05-25T08:27:44.415Z,2880.00
2023-05-25T08:28:43.379Z,3043.12
2023-05-25T08:29:43.428Z,3116.25
2023-05-25T08:30:43.405Z,3273.75
2023-05-25T08:31:43.376Z,3245.62
2023-05-25T08:32:43.422Z,3121.88
2023-05-25T08:33:43.413Z,3166.88
2023-05-25T08:34:43.330Z,3262.50
2023-05-25T08:35:43.553Z,3408.75
2023-05-25T08:36:43.296Z,3375.00
2023-05-25T08:37:43.324Z,3346.88
2023-05-25T08:38:43.346Z,3571.88
2023-05-25T08:39:43.305Z,3690.00
2023-05-25T08:40:43.287Z,3616.88
2023-05-25T08:41:43.315Z,3330.00
2023-05-25T08:42:43.230Z,3150.00
2023-05-25T08:43:43.227Z,3110.62
2023-05-25T08:44:43.218Z,3121.88
2023-05-25T08:45:46.838Z,3211.88
2023-05-25T08:46:43.196Z,3234.38
2023-05-25T08:47:43.210Z,3251.25
2023-05-25T08:48:43.313Z,3268.12
2023-05-25T08:49:43.302Z,3268.12
2023-05-25T08:50:43.253Z,3425.62
2023-05-25T08:51:43.148Z,3588.75
2023-05-25T08:52:43.119Z,3555.00
2023-05-25T08:53:43.114Z,3245.62
2023-05-25T08:54:43.099Z,3369.38
2023-05-25T08:55:43.426Z,3273.75
2023-05-25T08:56:43.124Z,3380.62
2023-05-25T08:57:43.073Z,3442.50
2023-05-25T08:58:43.067Z,3279.38
2023-05-25T08:59:43.091Z,3408.75
2023-05-25T09:00:43.326Z,3346.88
2023-05-25T09:01:43.101Z,3628.12
2023-05-25T09:02:43.095Z,933.75
2023-05-25T09:03:43.144Z,3701.25
2023-05-25T09:04:43.012Z,3785.62
2023-05-25T09:05:43.240Z,3628.12
2023-05-25T09:06:44.048Z,3712.50
2023-05-25T09:07:42.974Z,4021.88
2023-05-25T09:08:42.945Z,3808.12
2023-05-25T09:09:42.976Z,3628.12
2023-05-25T09:10:42.948Z,2756.25
2023-05-25T09:11:44.966Z,1665.00
2023-05-25T09:12:42.908Z,1659.38
2023-05-25T09:13:42.922Z,3431.25
2023-05-25T09:14:42.909Z,3954.38
2023-05-25T09:15:43.095Z,3667.50
2023-05-25T09:16:42.928Z,2970.00
2023-05-25T09:17:42.966Z,3960.00
2023-05-25T09:18:42.865Z,4050.00
2023-05-25T09:19:42.845Z,1614.38
2023-05-25T09:20:45.214Z,1805.62
2023-05-25T09:21:42.823Z,3195.00
2023-05-25T09:22:42.820Z,4201.88
2023-05-25T09:23:42.821Z,4888.12
2023-05-25T09:24:42.789Z,4871.25
2023-05-25T09:25:42.868Z,4398.75
2023-05-25T09:26:42.786Z,4140.00
2023-05-25T09:27:42.774Z,3740.62
2023-05-25T09:28:42.765Z,2075.62
2023-05-25T09:29:42.750Z,1546.88
2023-05-25T09:30:42.850Z,1423.12
2023-05-25T09:31:42.829Z,2655.00
2023-05-25T09:32:42.778Z,1468.12
2023-05-25T09:33:42.721Z,1417.50
2023-05-25T09:34:42.706Z,1361.25
2023-05-25T09:35:42.687Z,1501.88
2023-05-25T09:36:42.736Z,1344.38
2023-05-25T09:37:42.829Z,1237.50
2023-05-25T09:38:43.036Z,1164.38
2023-05-25T09:39:42.726Z,1136.25
2023-05-25T09:40:42.891Z,1271.25
2023-05-25T09:41:42.628Z,1614.38
2023-05-25T09:42:42.620Z,1873.12
2023-05-25T09:43:48.927Z,1991.25
2023-05-25T09:44:43.588Z,1766.25
2023-05-25T09:45:42.609Z,2593.12
2023-05-25T09:46:42.704Z,1980.00
2023-05-25T09:47:42.661Z,1985.62
2023-05-25T09:48:42.565Z,2182.50
2023-05-25T09:49:42.547Z,2041.88
2023-05-25T09:50:42.662Z,3386.25
2023-05-25T09:51:42.526Z,2221.88
2023-05-25T09:52:42.532Z,1653.75
2023-05-25T09:53:42.496Z,1828.12
2023-05-25T09:54:42.486Z,2317.50
2023-05-25T09:55:53.293Z,2520.00
2023-05-25T09:56:43.474Z,4421.25
2023-05-25T09:57:42.444Z,4359.38
2023-05-25T09:58:42.446Z,4342.50
2023-05-25T09:59:42.436Z,4359.38
2023-05-25T10:00:42.531Z,4291.88
2023-05-25T10:01:44.013Z,1890.00
2023-05-25T10:02:42.440Z,1569.38
2023-05-25T10:03:43.792Z,1518.75
2023-05-25T10:04:43.435Z,1698.75
2023-05-25T10:05:42.403Z,1642.50
2023-05-25T10:06:42.351Z,1951.88
2023-05-25T10:07:42.350Z,3093.75
2023-05-25T10:08:42.382Z,1935.00
2023-05-25T10:09:42.404Z,1406.25
2023-05-25T10:10:42.566Z,4246.88
2023-05-25T10:11:42.291Z,2503.12
2023-05-25T10:12:42.293Z,3999.38
2023-05-25T10:13:42.283Z,2880.00
2023-05-25T10:14:42.295Z,4044.38
2023-05-25T10:15:42.320Z,4072.50
2023-05-25T10:16:42.261Z,3836.25
2023-05-25T10:17:42.335Z,4066.88
2023-05-25T10:18:42.231Z,4100.62
2023-05-25T10:19:42.226Z,4196.25
2023-05-25T10:20:42.259Z,3948.75
2023-05-25T10:21:42.191Z,4770.00
2023-05-25T10:22:42.192Z,5220.00
2023-05-25T10:23:42.287Z,1642.50
2023-05-25T10:24:42.178Z,1316.25
2023-05-25T10:25:42.158Z,1181.25
2023-05-25T10:26:42.152Z,1141.88
2023-05-25T10:27:42.135Z,1175.62
2023-05-25T10:28:42.149Z,1423.12
2023-05-25T10:29:42.121Z,1676.25
2023-05-25T10:30:42.114Z,1743.75
2023-05-25T10:31:42.163Z,2064.38
2023-05-25T10:32:42.124Z,4483.12
2023-05-25T10:33:42.076Z,5017.50
2023-05-25T10:34:42.067Z,4770.00
2023-05-25T10:35:56.273Z,4179.38
2023-05-25T10:36:43.037Z,2216.25
2023-05-25T10:37:42.021Z,2008.12
2023-05-25T10:38:42.100Z,2638.12
2023-05-25T10:39:42.002Z,2266.88
2023-05-25T10:40:42.059Z,1648.12
2023-05-25T10:41:41.989Z,2953.12
2023-05-25T10:42:41.982Z,3465.00
2023-05-25T10:43:41.989Z,4477.50
2023-05-25T10:44:41.974Z,1721.25
2023-05-25T10:45:41.953Z,1271.25
2023-05-25T10:46:41.983Z,3864.38
2023-05-25T10:47:41.997Z,4533.75
2023-05-25T10:48:41.927Z,4095.00
2023-05-25T10:49:41.908Z,2458.12
2023-05-25T10:50:41.906Z,4713.75
2023-05-25T10:51:41.891Z,4708.12
2023-05-25T10:52:41.907Z,4865.62
2023-05-25T10:53:41.868Z,4837.50
2023-05-25T10:54:41.852Z,4561.88
2023-05-25T10:55:41.894Z,4455.00
2023-05-25T10:56:42.260Z,4123.12
2023-05-25T10:57:41.814Z,4359.38
2023-05-25T10:58:41.822Z,4668.75
2023-05-25T10:59:41.830Z,2300.62
2023-05-25T11:00:41.939Z,1423.12
2023-05-25T11:01:41.881Z,2081.25
2023-05-25T11:02:41.805Z,4910.62
2023-05-25T11:03:41.808Z,2520.00
2023-05-25T11:04:41.883Z,4353.75
2023-05-25T11:05:41.746Z,1996.88
2023-05-25T11:06:41.761Z,1794.38
2023-05-25T11:07:41.735Z,2306.25
2023-05-25T11:08:41.755Z,4500.00
2023-05-25T11:09:41.696Z,3560.62
2023-05-25T11:10:41.781Z,1631.25
2023-05-25T11:11:41.681Z,4342.50
2023-05-25T11:12:41.674Z,4111.88
2023-05-25T11:13:41.695Z,4933.12
2023-05-25T11:14:41.652Z,4736.25
2023-05-25T11:15:41.672Z,4533.75
2023-05-25T11:16:41.700Z,4927.50
2023-05-25T11:17:41.647Z,5101.88
2023-05-25T11:18:41.629Z,5073.75
2023-05-25T11:19:41.635Z,5090.62
2023-05-25T11:20:41.777Z,1282.50
2023-05-25T11:21:41.581Z,1237.50
2023-05-25T11:22:41.569Z,1248.75
2023-05-25T11:23:41.565Z,1271.25
2023-05-25T11:24:41.554Z,1372.50
2023-05-25T11:25:41.599Z,1451.25
2023-05-25T11:26:41.552Z,3116.25
2023-05-25T11:27:41.514Z,4061.25
2023-05-25T11:28:41.518Z,4010.62
2023-05-25T11:29:41.512Z,4033.12
2023-05-25T11:30:41.521Z,4325.62
2023-05-25T11:31:43.727Z,4685.62
2023-05-25T11:32:41.499Z,4758.75
2023-05-25T11:33:41.452Z,4753.12
2023-05-25T11:34:41.581Z,4696.88
2023-05-25T11:35:41.482Z,4758.75
2023-05-25T11:36:41.452Z,1395.00
2023-05-25T11:37:41.473Z,1535.62
2023-05-25T11:38:45.247Z,4815.00
2023-05-25T11:39:42.397Z,3420.00
2023-05-25T11:40:41.418Z,1485.00
2023-05-25T11:41:41.381Z,1186.88
2023-05-25T11:42:41.373Z,1113.75
2023-05-25T11:43:41.414Z,1513.12
2023-05-25T11:44:41.417Z,1698.75
2023-05-25T11:45:41.328Z,4291.88
2023-05-25T11:46:41.396Z,4449.38
2023-05-25T11:47:41.360Z,4370.62
2023-05-25T11:48:41.308Z,1462.50
2023-05-25T11:49:41.293Z,1237.50
2023-05-25T11:50:41.281Z,1220.62
2023-05-25T11:51:41.266Z,1288.12
2023-05-25T11:52:41.269Z,1288.12
2023-05-25T11:53:41.270Z,4545.00
2023-05-25T11:54:41.297Z,4651.88
2023-05-25T11:55:41.268Z,4595.62
2023-05-25T11:56:41.250Z,4398.75
2023-05-25T11:57:41.234Z,4269.38
2023-05-25T11:58:41.225Z,4443.75
2023-05-25T11:59:41.182Z,4539.38
2023-05-25T12:00:41.220Z,4561.88
2023-05-25T12:01:41.168Z,1389.38
2023-05-25T12:02:41.356Z,1186.88
2023-05-25T12:03:41.215Z,1282.50
2023-05-25T12:04:41.295Z,4196.25
2023-05-25T12:05:41.351Z,1929.38
2023-05-25T12:06:41.213Z,2475.00
2023-05-25T12:07:41.130Z,4224.38
2023-05-25T12:08:41.138Z,1507.50
2023-05-25T12:09:41.085Z,2491.88
2023-05-25T12:10:41.070Z,1496.25
2023-05-25T12:11:41.074Z,4477.50
2023-05-25T12:12:41.051Z,4376.25
2023-05-25T12:13:41.053Z,1485.00
2023-05-25T12:14:41.032Z,1530.00
2023-05-25T12:15:41.063Z,1389.38
2023-05-25T12:16:41.126Z,1636.88
2023-05-25T12:17:41.017Z,4320.00
2023-05-25T12:18:40.975Z,3802.50
2023-05-25T12:19:40.974Z,3870.00
2023-05-25T12:20:41.025Z,4381.88
2023-05-25T12:21:41.021Z,4241.25
2023-05-25T12:22:40.965Z,1968.75
2023-05-25T12:23:40.943Z,1856.25
2023-05-25T12:24:40.933Z,1569.38
2023-05-25T12:25:50.310Z,1372.50
2023-05-25T12:26:41.905Z,1327.50
2023-05-25T12:27:40.946Z,1260.00
2023-05-25T12:28:40.892Z,1248.75
2023-05-25T12:29:40.880Z,1276.88
2023-05-25T12:30:40.900Z,1389.38
2023-05-25T12:31:40.872Z,1563.75
2023-05-25T12:32:40.918Z,3628.12